METAR Data
IDs: Format: Raw Decoded Include TAF

Data at: 0626 UTC 01 Aug 2021

KONT 010553Z 22003KT 10SM FEW250 25/08 A3003 RMK AO2 SLP148 T02500078 10350 20250 51013